Bezig met laden...

Meteo / TAF / Notam

België
  • EBAW - ANTWERPEN / DEURNE
    EBAW 151250Z 15013KT 120V180 9999 BKN034 01/M06 Q1022 NOSIG
    TAF EBAW 151100Z 1512/1521 14010KT 9999 SCT040 BECMG 1519/1521 3500 -SN BKN008
  • EBBE - BEAUVECHAIN
    EBBE 151255Z AUTO 15009KT 9999 BKN029/// 01/M06 Q1021 BLU
  • EBBL - KLEINE-BROGEL
    EBBL 151255Z AUTO 14005KT 9999 OVC032/// 01/M06 Q1023 BLU
  • EBBR - BRUSSELS / BRUSSELS-NATIONAL
    EBBR 151250Z 16008KT 9999 BKN033 01/M06 Q1021 NOSIG
    TAF EBBR 151100Z 1512/1618 14010KT 9999 BKN040 BECMG 1519/1521 3500 -SN BKN008 PROB40 TEMPO 1521/1524 16016G28KT 1200 SN BKN002 PROB30 TEMPO 1523/1601 -FZRA BECMG 1600/1602 20010KT 6000 NSW PROB40 1604/1608 0500 FG BKN001 PROB30 TEMPO 1608/1610 4000 SHRA
  • EBCI - CHARLEROI / BRUSSELS SOUTH
    EBCI 151250Z 17011KT 140V200 9999 BKN028 00/M06 Q1021 NOSIG
    TAF EBCI 151100Z 1512/1618 14010KT 9999 BKN040 BECMG 1518/1520 3500 -SN BKN008 TEMPO 1520/1524 16016G28KT 1200 SN BKN001 PROB40 TEMPO 1523/1601 -FZRA BECMG 1600/1602 20010KT 6000 NSW PROB40 1603/1609 0500 FG BKN001 PROB30 TEMPO 1609/1611 4000 SHRA BKN004
  • EBCV - CHIÈVRES
    EBCV 151255Z AUTO 16009KT 9999 BKN028/// 00/M05 Q1021 BLU
    TAF EBCV 151141Z 1513/1522 15010KT 9999 SCT030 SCT120 BECMG 1514/1516 SCT025 SCT090 BECMG 1517/1519 15017G27KT SCT020 BKN040 BECMG 1518/1520 3000 -SN / SNRA SCT008 BKN012 PROB30 TEMPO 1520/1522 4000 FZRA SCT008 BKN012 BY EBWM
  • EBDT - DIEST / SCHAFFEN
    EBDT 151255Z AUTO 15009KT 9999 BKN033/// 01/M06 Q1022 BLU
  • EBFN - KOKSIJDE
    EBFN 151255Z AUTO 16016KT 7000 OVC023/// 01/M05 Q1018 WHT
    TAF EBFN 151141Z 1513/1522 16008KT 9999 SCT030 BKN200 BECMG 1513/1515 16016KT 9999 SCT030 BKN060 PROB30 TEMPO 1515/1522 3000 -SNRA SCT010 BKN030 BECMG 1516/1518 15020G30KT FEW012 SCT020 BKN030 TEMPO 1517/1522 5000 RA SCT010 BKN030 PROB40 TEMPO 1517/1522 4
  • EBFS - FLORENNES
    EBFS 151255Z AUTO 16012KT 9999 OVC022/// M01/M06 Q1020 WHT
  • EBLB - ELSENBORN
    EBLB 151255Z AUTO 15004KT 9999 FEW018/// M03/M07 Q1020 BLU
  • EBLG - LIÈGE / LIÈGE
    EBLG 151250Z 15009KT 9999 BKN030 00/M06 Q1021 NOSIG
    TAF EBLG 151100Z 1512/1618 14010KT 9999 BKN040 BECMG 1521/1523 3500 -SN BKN008 TEMPO 1523/1601 16016G28KT 1200 SN BKN002 PROB40 TEMPO 1601/1603 -FZRA BECMG 1602/1604 20010KT 6000 NSW PROB40 1604/1610 0500 FG BKN001 PROB30 TEMPO 1610/1612 4000 SHRA BKN014T
  • EBOS - OOSTENDE-BRUGGE / OOSTENDE
    EBOS 151250Z 15020KT 9999 BKN024 00/M05 Q1019 NOSIG
    TAF EBOS 151100Z 1512/1618 14015KT 9999 BKN040 BECMG 1517/1519 3500 -SN BKN008 PROB40 TEMPO 1519/1523 16018G30KT 1200 SN BKN002 PROB30 TEMPO 1521/1524 -FZRA BECMG 1600/1602 20010KT 6000 NSW PROB40 1602/1606 0500 FG BKN001 PROB30 TEMPO 1606/1608 4000 SHRA
Nederland
  • EHAK - A12-CPP HELIPAD OIL 2011
    EHAK 151255Z AUTO 14035KT 9999 SCT025/// OVC029/// 04/M02 Q1020 W///H///
  • EHAM - AMSTERDAM AIRPORT SCHIPHOL
    EHAM 151255Z 15014KT 110V180 9999 BKN030 01/M06 Q1022 NOSIG
    TAF EHAM 151049Z 1512/1618 14013KT 9999 SCT035 BECMG 1517/1520 13016G26KT BECMG 1522/1524 4000 -SN BKN015 PROB40 TEMPO 1523/1603 1000 SN VV005 BECMG 1603/1606 16010KT BR -DZ OVC004 PROB40 1609/1618 1500 OVC002
  • EHBK - MAASTRICHT AACHEN AIRPORT
    EHBK 151255Z AUTO 14008KT 100V180 9999 BKN030 00/M06 Q1022 NOSIG
    TAF EHBK 151118Z 1512/1618 14008KT 9999 BKN030 BECMG 1600/1603 20010KT 5000 -SN SCT015 BKN020 PROB40 TEMPO 1600/1604 0800 SN BKN004 BECMG 1605/1608 8000 NSW BKN008 PROB30 TEMPO 1606/1608 4500 -FZDZ BR BKN004 BECMG 1612/1615 8000 NSC PROB30 1615/1618 5000
  • EHDL - DEELEN AIR BASE
    EHDL 151255Z AUTO 14014KT 080V210 9999 OVC029 01/M05 Q1023 BLU
  • EHDV - D15-FA-1 SEA
    EHDV 151255Z AUTO 16036KT 9999 BKN028/// OVC031/// 04/M02 Q1018 W///H///
  • EHEH - EINDHOVEN AIRPORT
    EHEH 151255Z AUTO 14009KT 110V190 9999 OVC030 01/M05 Q1022 BLU 14009KT 9999 OVC030
    TAF EHEH 151135Z 1512/1618 14005KT 9999 BKN030 BECMG 1515/1518 14011G21KT BECMG 1523/1601 4000 -SN -SNRA BKN010 PROB40 TEMPO 1600/1605 1500 SN VV005 BECMG 1604/1607 21007KT 4000 -DZRA BR OVC005 PROB30 TEMPO 1604/1607 3000 FZDZ
  • EHFD - F-3 PLATFORM
    EHFD 151255Z AUTO 15029KT 9999 BKN025/// OVC028/// 03/M03 Q1021 W///H///
  • EHFS - VLISSINGEN
    EHFS 151255Z AUTO 16020KT 9999 BKN028 02/M03 Q1020 W///H///
  • EHFZ - F16-A SEA
    EHFZ 151255Z AUTO 15029KT 9999 BKN026 OVC030 02/M04 Q1020 W///H///
  • EHGG - GRONINGEN AIRPORT EELDE
    EHGG 151255Z AUTO 13008KT 090V180 9999 OVC027 01/M04 Q1024 NOSIG
    TAF EHGG 151118Z 1512/1618 13010KT 9999 BKN030 BECMG 1518/1521 13015G25KT BECMG 1602/1605 5000 -SN SCT015 BKN020 TEMPO 1605/1609 0800 SN BKN004 BECMG 1608/1611 15010KT 4000 DZ BR BKN008 PROB40 TEMPO 1610/1614 -FZDZ PROB40 TEMPO 1614/1618 2500 BR BKN004
  • EHGR - GILZE-RIJEN AIR BASE
    EHGR 151255Z AUTO 15009KT 110V180 9999 OVC030 01/M05 Q1022 BLU
  • EHJA - J6-A SEA, NETHERLANDS
    EHJA 151255Z AUTO 15029KT 9999 BKN022/// OVC025/// 03/M02 Q1019 W///H///
  • EHJR - K13-A PLATFORM
    EHJR 151255Z AUTO 16030KT //// // ///////// 03/M02 Q1018 RE// W///H22
  • EHKD - DEN HELDER AIRPORT
    EHKD 151255Z AUTO 15013KT 120V180 9999 OVC030 01/M05 Q1022 BLU 16015KT 9999 BKN028
    TAF EHKD 150934Z 1510/1522 14010KT 9999 BKN030 BECMG 1516/1519 14018G30KT
  • EHKV - K14-FA-1C PLATFORM
    EHKV 151255Z AUTO 16025KT 9999 SCT023 OVC026 03/M03 Q1020 W///H///
  • EHLW - LEEUWARDEN AIR BASE
    EHLW 151255Z AUTO 14012KT 110V180 9999 FEW029 BKN034 OVC280 01/M04 Q1023 BLU
  • EHMA - AWG-1 PLATFORM
    EHMA 151255Z AUTO 13022KT //// // OVC028 01/M04 Q1023 RE// W///H///
  • EHMG - L9-FF-1 PLATFORM
    EHMG 151255Z AUTO 16026KT 9999 BKN026 OVC030 02/M05 Q1022 W///H///
  • EHPG - P11-B SEA, NETHERLANDS
    EHPG 151255Z AUTO 14027KT 090V160 9999 SCT027 BKN030 02/M04 Q1018 W///H///
  • EHQE - HOORN-A SEA, NETHERLANDS
    EHQE 151255Z AUTO 16026KT 9999 BKN024 OVC028 02/M04 Q1020 W///H///
  • EHRD - ROTTERDAM THE HAGUE AIRPORT
    EHRD 151255Z AUTO 14014KT 100V170 9999 FEW034 01/M06 Q1022 NOSIG
    TAF EHRD 151049Z 1512/1618 14013KT 9999 SCT035 BECMG 1517/1520 13016G26KT BECMG 1521/1523 4000 -SN BKN015 PROB40 TEMPO 1522/1602 1000 SN VV005 BECMG 1602/1605 16010KT BR -DZ OVC004 PROB40 1608/1618 1500 OVC002
  • EHSA - EURO PLATFORM
    EHSA 151255Z AUTO 14026KT 9999 ///////// 02/M04 Q1019 W08/H13
  • EHSC - LICHTEILAND GOEREE
    EHSC 151255Z AUTO 16023KT 9999 ///////// 02/M06 Q1020 W08/H8
  • EHVK - VOLKEL AIR BASE
    EHVK 151255Z AUTO 14008KT 110V190 9999 OVC030 01/M05 Q1023 BLU
    TAF EHVK 150936Z 1510/1522 14007KT 9999 BKN030 BECMG 1515/1518 14012G22KT
  • EHVL - VLIELAND HELIPORT
    EHVL 151255Z AUTO 16021KT 9999 OVC027 01/M05 Q1022 BLU
  • EHWO - WOENSDRECHT AIR BASE
    EHWO 151255Z AUTO 14006KT 100V180 9999 OVC032 01/M05 Q1021 BLU
Luxemburg
  • ELLX - LUXEMBOURG FINDEL AIRPORT
    ELLX 151250Z 12009KT 060V150 9999 BKN022 M01/M07 Q1021 NOSIG
    TAF ELLX 151100Z 1512/1618 14008KT 9999 BKN022 BECMG 1522/1524 3000 -SN BKN004 PROB40 TEMPO 1604/1609 -FZDZ -SG BECMG 1603/1605 6000 NSW BKN006 BECMG 1616/1618 3000 BR BKN004

Buienradar



Weerbericht - Voorspelling